createdAt,value
2023-03-15T00:04:17.075Z,2.08
2023-03-15T00:09:20.020Z,2.05
2023-03-15T00:14:22.664Z,2.08
2023-03-15T00:19:24.847Z,2.15
2023-03-15T00:24:26.965Z,1.85
2023-03-15T00:29:29.154Z,1.85
2023-03-15T00:34:33.852Z,2.22
2023-03-15T00:39:37.973Z,1.90
2023-03-15T00:44:45.147Z,1.30
2023-03-15T00:49:47.472Z,2.10
2023-03-15T00:54:53.765Z,2.92
2023-03-15T00:59:57.403Z,1.50
2023-03-15T01:05:00.118Z,3.40
2023-03-15T01:10:04.737Z,2.05
2023-03-15T01:15:08.765Z,1.50
2023-03-15T01:20:14.197Z,1.45
2023-03-15T01:25:17.639Z,1.30
2023-03-15T01:30:20.907Z,2.30
2023-03-15T01:35:23.828Z,2.75
2023-03-15T01:40:26.333Z,2.00
2023-03-15T01:45:59.583Z,1.48
2023-03-15T01:51:16.912Z,1.92
2023-03-15T01:56:19.692Z,2.28
2023-03-15T02:01:22.727Z,1.58
2023-03-15T02:06:26.649Z,1.25
2023-03-15T02:11:31.209Z,1.42
2023-03-15T02:16:34.370Z,1.67
2023-03-15T02:22:07.124Z,2.45
2023-03-15T02:27:09.516Z,2.70
2023-03-15T02:32:11.948Z,1.58
2023-03-15T02:37:14.146Z,1.70
2023-03-15T02:42:17.162Z,1.88
2023-03-15T02:47:30.475Z,1.88
2023-03-15T02:52:33.932Z,1.80
2023-03-15T02:57:37.754Z,2.03
2023-03-15T03:02:46.722Z,1.80
2023-03-15T03:07:50.548Z,2.10
2023-03-15T03:12:53.794Z,1.63
2023-03-15T03:18:03.437Z,1.95
2023-03-15T03:23:06.968Z,2.22
2023-03-15T03:28:09.280Z,2.13
2023-03-15T03:33:11.586Z,3.35
2023-03-15T03:38:15.177Z,1.48
2023-03-15T03:43:22.397Z,1.73
2023-03-15T03:48:25.081Z,1.58
2023-03-15T03:53:27.764Z,1.02
2023-03-15T03:58:30.798Z,1.20
2023-03-15T04:03:43.648Z,1.38
2023-03-15T04:08:51.695Z,1.40
2023-03-15T04:14:03.690Z,0.98
2023-03-15T04:19:08.076Z,1.08
2023-03-15T04:24:11.498Z,1.13
2023-03-15T04:29:32.305Z,1.00
2023-03-15T04:34:52.773Z,1.40
2023-03-15T04:40:08.722Z,1.00
2023-03-15T04:45:13.855Z,1.95
2023-03-15T04:50:34.276Z,1.70
2023-03-15T04:56:08.685Z,1.40
2023-03-15T05:01:14.110Z,1.65
2023-03-15T05:06:29.963Z,1.10
2023-03-15T05:11:55.571Z,1.17
2023-03-15T05:17:26.845Z,0.95
2023-03-15T05:22:50.449Z,1.20
2023-03-15T05:28:11.206Z,1.25
2023-03-15T05:33:46.971Z,0.90
2023-03-15T05:39:16.880Z,0.60
2023-03-15T05:44:37.600Z,0.65
2023-03-15T05:50:00.110Z,1.35
2023-03-15T05:55:25.112Z,0.70
2023-03-15T06:00:50.852Z,0.70
2023-03-15T06:11:15.601Z,0.60
2023-03-15T06:16:18.128Z,0.90
2023-03-15T06:21:23.641Z,0.90
2023-03-15T06:26:26.328Z,1.25
2023-03-15T06:31:33.828Z,1.73
2023-03-15T06:36:39.320Z,0.98
2023-03-15T06:41:42.461Z,2.45
2023-03-15T06:46:50.775Z,1.52
2023-03-15T06:51:53.541Z,1.23
2023-03-15T06:56:57.991Z,1.33
2023-03-15T07:02:00.305Z,1.85
2023-03-15T07:07:02.648Z,1.92
2023-03-15T07:12:05.390Z,2.10
2023-03-15T07:17:07.788Z,1.55
2023-03-15T07:22:10.315Z,2.20
2023-03-15T07:27:15.403Z,1.48
2023-03-15T07:32:19.008Z,0.90
2023-03-15T07:37:21.320Z,1.33
2023-03-15T07:42:23.711Z,1.90
2023-03-15T07:47:31.323Z,1.80
2023-03-15T07:52:33.669Z,1.95
2023-03-15T07:57:36.081Z,1.20
2023-03-15T08:02:38.545Z,1.98
2023-03-15T08:07:40.949Z,1.33
2023-03-15T08:12:43.975Z,2.50
2023-03-15T08:17:48.420Z,1.20
2023-03-15T08:22:51.609Z,1.55
2023-03-15T08:27:53.954Z,3.17
2023-03-15T08:32:56.286Z,1.27
2023-03-15T08:37:58.671Z,1.48
2023-03-15T08:43:01.404Z,2.35
2023-03-15T08:48:03.862Z,1.75
2023-03-15T08:53:06.264Z,1.60
2023-03-15T08:58:09.102Z,1.42
2023-03-15T09:03:11.531Z,1.50
2023-03-15T09:08:14.492Z,2.28
2023-03-15T09:13:16.916Z,2.47
2023-03-15T09:18:20.022Z,1.25
2023-03-15T09:23:22.587Z,1.65
2023-03-15T09:28:25.891Z,1.55
2023-03-15T09:33:28.142Z,3.53
2023-03-15T09:38:31.061Z,1.48
2023-03-15T09:43:57.338Z,1.10
2023-03-15T09:49:10.145Z,1.50
2023-03-15T09:54:25.493Z,2.17
2023-03-15T09:59:35.682Z,2.83
2023-03-15T10:04:43.370Z,1.40
2023-03-15T10:09:48.975Z,1.23
2023-03-15T10:15:26.434Z,3.15
2023-03-15T10:20:35.944Z,1.20
2023-03-15T10:25:38.983Z,1.08
2023-03-15T10:30:48.156Z,2.33
2023-03-15T10:35:52.474Z,1.83
2023-03-15T10:41:00.102Z,1.13
2023-03-15T10:46:08.830Z,1.45
2023-03-15T10:51:38.234Z,1.63
2023-03-15T10:57:07.202Z,1.38
2023-03-15T11:02:13.127Z,1.52
2023-03-15T11:07:16.002Z,1.60
2023-03-15T11:12:29.774Z,2.13
2023-03-15T11:17:36.622Z,1.85
2023-03-15T11:22:43.666Z,1.45
2023-03-15T11:27:52.440Z,2.10
2023-03-15T11:33:08.443Z,1.88
2023-03-15T11:38:24.960Z,3.38
2023-03-15T11:43:59.951Z,2.67
2023-03-15T11:49:46.515Z,3.72
2023-03-15T11:55:00.359Z,1.40
2023-03-15T12:00:36.486Z,1.40
2023-03-15T12:05:51.565Z,1.48
2023-03-15T12:10:56.023Z,5.40
2023-03-15T12:15:59.756Z,10.23
2023-03-15T12:21:12.205Z,3.83
2023-03-15T12:26:40.278Z,2.75
2023-03-15T12:32:05.154Z,1.45
2023-03-15T12:37:41.094Z,1.60
2023-03-15T12:42:43.548Z,2.03
2023-03-15T12:47:50.313Z,1.45
2023-03-15T12:52:58.536Z,0.98
2023-03-15T12:58:05.124Z,1.40
2023-03-15T13:03:20.732Z,0.85
2023-03-15T13:09:15.049Z,0.20
2023-03-15T13:14:28.091Z,0.85
2023-03-15T13:25:23.774Z,0.30
2023-03-15T13:30:27.129Z,0.73
2023-03-15T13:35:30.440Z,0.50
2023-03-15T13:41:07.470Z,1.08
2023-03-15T13:46:11.059Z,0.77
2023-03-15T13:51:38.966Z,0.60
2023-03-15T13:57:12.249Z,0.30
2023-03-15T14:02:50.357Z,0.30
2023-03-15T14:08:21.086Z,0.30
2023-03-15T14:13:32.637Z,0.35
2023-03-15T14:18:48.587Z,0.45
2023-03-15T14:23:53.860Z,0.77
2023-03-15T14:29:02.488Z,0.25
2023-03-15T14:34:35.889Z,0.22
2023-03-15T14:39:40.768Z,0.75
2023-03-15T14:44:42.887Z,0.30
2023-03-15T14:49:48.480Z,0.20
2023-03-15T14:54:54.174Z,0.10
2023-03-15T14:59:57.909Z,0.20
2023-03-15T15:05:03.592Z,0.70
2023-03-15T15:10:06.509Z,0.30
2023-03-15T15:15:22.208Z,1.70
2023-03-15T15:20:30.194Z,0.50
2023-03-15T15:25:34.023Z,0.47
2023-03-15T15:30:37.549Z,0.40
2023-03-15T15:35:40.045Z,0.45
2023-03-15T15:40:43.984Z,0.40
2023-03-15T15:45:46.995Z,0.22
2023-03-15T15:50:55.510Z,0.28
2023-03-15T15:56:02.108Z,0.63
2023-03-15T16:01:04.479Z,0.35
2023-03-15T16:06:21.278Z,0.73
2023-03-15T16:11:29.569Z,0.60
2023-03-15T16:16:32.438Z,0.20
2023-03-15T16:21:48.324Z,1.02
2023-03-15T16:26:53.358Z,1.52
2023-03-15T16:32:10.082Z,0.10
2023-03-15T16:37:22.676Z,0.40
2023-03-15T16:42:25.867Z,0.10
2023-03-15T16:47:28.101Z,0.20
2023-03-15T16:52:31.355Z,0.17
2023-03-15T16:57:33.624Z,0.80
2023-03-15T17:02:35.820Z,0.35
2023-03-15T17:07:39.500Z,1.02
2023-03-15T17:12:42.441Z,0.32
2023-03-15T17:17:44.582Z,0.30
2023-03-15T17:22:47.295Z,0.60
2023-03-15T17:27:50.668Z,0.35
2023-03-15T17:32:54.028Z,0.50
2023-03-15T17:37:57.410Z,0.50
2023-03-15T17:43:01.825Z,0.68
2023-03-15T17:48:04.529Z,0.60
2023-03-15T17:53:14.560Z,0.80
2023-03-15T17:58:22.448Z,0.90
2023-03-15T18:03:25.366Z,1.83
2023-03-15T18:08:27.546Z,2.83
2023-03-15T18:13:30.079Z,3.95
2023-03-15T18:18:32.199Z,2.30
2023-03-15T18:23:34.312Z,2.60
2023-03-15T18:28:36.653Z,12.18
2023-03-15T18:33:38.752Z,5.03
2023-03-15T18:38:40.968Z,3.30
2023-03-15T18:43:49.472Z,3.80
2023-03-15T18:48:53.607Z,3.60
2023-03-15T18:53:56.367Z,3.90
2023-03-15T18:58:58.410Z,5.03
2023-03-15T19:04:00.570Z,8.50
2023-03-15T19:09:02.689Z,6.45
2023-03-15T19:14:04.860Z,6.72
2023-03-15T19:19:06.946Z,8.63
2023-03-15T19:24:09.291Z,6.45
2023-03-15T19:29:11.726Z,5.47
2023-03-15T19:34:13.763Z,5.65
2023-03-15T19:39:15.876Z,5.57
2023-03-15T19:44:18.019Z,3.92
2023-03-15T19:49:20.082Z,4.30
2023-03-15T19:54:22.213Z,5.38
2023-03-15T19:59:25.087Z,6.57
2023-03-15T20:04:27.465Z,4.07
2023-03-15T20:09:29.802Z,2.60
2023-03-15T20:14:32.267Z,3.47
2023-03-15T20:19:36.002Z,2.58
2023-03-15T20:24:40.308Z,10.13
2023-03-15T20:29:42.523Z,3.58
2023-03-15T20:34:44.758Z,3.42
2023-03-15T20:39:47.175Z,2.67
2023-03-15T20:44:49.558Z,3.42
2023-03-15T20:49:52.214Z,3.22
2023-03-15T20:54:54.408Z,3.13
2023-03-15T20:59:56.569Z,1.95
2023-03-15T21:04:58.687Z,2.47
2023-03-15T21:10:01.092Z,2.60
2023-03-15T21:15:03.632Z,1.75
2023-03-15T21:20:07.349Z,2.30
2023-03-15T21:25:10.453Z,2.45
2023-03-15T21:30:14.070Z,1.20
2023-03-15T21:35:19.274Z,1.27
2023-03-15T21:40:21.748Z,1.02
2023-03-15T21:45:24.073Z,0.98
2023-03-15T21:50:26.651Z,1.02
2023-03-15T21:55:32.053Z,1.10
2023-03-15T22:00:34.349Z,0.93
2023-03-15T22:05:36.944Z,1.23
2023-03-15T22:10:38.978Z,1.27
2023-03-15T22:15:41.209Z,1.60
2023-03-15T22:20:43.337Z,2.17
2023-03-15T22:25:45.879Z,1.38
2023-03-15T22:30:49.639Z,4.78
2023-03-15T22:35:56.439Z,3.78
2023-03-15T22:41:03.699Z,5.68
2023-03-15T22:46:05.883Z,4.07
2023-03-15T22:51:14.764Z,3.17
2023-03-15T22:56:17.490Z,4.93
2023-03-15T23:01:19.749Z,5.75
2023-03-15T23:06:22.289Z,6.35
2023-03-15T23:11:24.638Z,2.13
2023-03-15T23:16:26.804Z,4.25
2023-03-15T23:21:28.996Z,3.72
2023-03-15T23:26:37.501Z,2.08
2023-03-15T23:31:41.984Z,3.57
2023-03-15T23:36:51.684Z,1.42
2023-03-15T23:41:57.916Z,2.35
2023-03-15T23:47:02.857Z,2.78
2023-03-15T23:52:05.949Z,2.42
2023-03-15T23:57:10.342Z,1.00
